createdAt,value
2023-02-22T00:00:44.308Z,90.63
2023-02-22T00:03:16.233Z,90.38
2023-02-22T00:05:46.962Z,90.33
2023-02-22T00:08:15.169Z,90.25
2023-02-22T00:10:41.608Z,90.34
2023-02-22T00:13:10.722Z,90.10
2023-02-22T00:15:37.480Z,90.45
2023-02-22T00:18:05.388Z,89.89
2023-02-22T00:20:31.900Z,89.46
2023-02-22T00:23:01.446Z,89.81
2023-02-22T00:25:28.002Z,90.16
2023-02-22T00:27:54.962Z,90.49
2023-02-22T00:30:26.719Z,89.93
2023-02-22T00:32:56.014Z,90.45
2023-02-22T00:35:26.101Z,90.61
2023-02-22T00:37:55.637Z,90.50
2023-02-22T00:40:30.475Z,90.30
2023-02-22T00:42:58.439Z,90.30
2023-02-22T00:45:27.539Z,90.10
2023-02-22T00:47:57.378Z,90.52
2023-02-22T00:50:26.742Z,90.19
2023-02-22T00:52:53.797Z,90.19
2023-02-22T00:55:31.867Z,90.11
2023-02-22T00:57:59.322Z,90.09
2023-02-22T01:00:31.952Z,89.64
2023-02-22T01:02:59.230Z,89.46
2023-02-22T01:05:28.599Z,89.94
2023-02-22T01:07:57.180Z,90.48
2023-02-22T01:10:25.947Z,90.73
2023-02-22T01:12:52.785Z,90.88
2023-02-22T01:15:24.055Z,90.59
2023-02-22T01:17:53.655Z,90.89
2023-02-22T01:20:25.942Z,91.17
2023-02-22T01:22:54.528Z,91.18
2023-02-22T01:25:23.817Z,90.84
2023-02-22T01:27:51.326Z,90.84
2023-02-22T01:30:21.821Z,90.34
2023-02-22T01:32:48.394Z,90.91
2023-02-22T01:35:18.444Z,91.26
2023-02-22T01:37:45.668Z,91.73
2023-02-22T01:40:20.524Z,91.24
2023-02-22T01:42:55.374Z,91.35
2023-02-22T01:45:30.923Z,91.44
2023-02-22T01:48:04.969Z,91.43
2023-02-22T01:50:35.515Z,91.23
2023-02-22T01:53:03.372Z,90.97
2023-02-22T01:55:31.719Z,90.74
2023-02-22T01:57:58.261Z,91.53
2023-02-22T02:00:27.682Z,91.48
2023-02-22T02:03:06.354Z,91.73
2023-02-22T02:05:36.102Z,91.98
2023-02-22T02:08:14.516Z,91.14
2023-02-22T02:10:42.758Z,90.95
2023-02-22T02:13:10.161Z,89.99
2023-02-22T02:15:37.024Z,89.98
2023-02-22T02:18:10.799Z,90.37
2023-02-22T02:20:57.192Z,90.12
2023-02-22T02:23:45.193Z,90.55
2023-02-22T02:26:27.490Z,90.37
2023-02-22T02:29:05.824Z,90.34
2023-02-22T02:31:59.414Z,90.08
2023-02-22T02:34:40.578Z,91.24
2023-02-22T02:37:33.091Z,91.12
2023-02-22T02:40:12.545Z,91.44
2023-02-22T02:42:51.418Z,91.48
2023-02-22T02:45:26.304Z,91.78
2023-02-22T02:47:59.946Z,92.08
2023-02-22T02:50:32.041Z,92.29
2023-02-22T02:53:04.095Z,92.29
2023-02-22T02:55:32.507Z,92.13
2023-02-22T02:58:00.242Z,92.08
2023-02-22T03:00:32.502Z,92.62
2023-02-22T03:03:33.366Z,92.39
2023-02-22T03:06:16.881Z,92.19
2023-02-22T03:09:13.957Z,92.23
2023-02-22T03:12:02.228Z,91.88
2023-02-22T03:14:43.734Z,92.21
2023-02-22T03:17:45.987Z,92.35
2023-02-22T03:20:21.102Z,92.69
2023-02-22T03:23:24.725Z,92.42
2023-02-22T03:26:01.290Z,92.34
2023-02-22T03:28:30.126Z,91.68
2023-02-22T03:31:27.684Z,91.94
2023-02-22T03:34:00.777Z,92.00
2023-02-22T03:36:38.957Z,91.90
2023-02-22T03:39:09.930Z,91.97
2023-02-22T03:41:39.007Z,92.66
2023-02-22T03:44:09.460Z,93.03
2023-02-22T03:46:38.930Z,92.70
2023-02-22T03:49:12.722Z,93.23
2023-02-22T03:51:39.637Z,93.29
2023-02-22T03:54:07.596Z,93.73
2023-02-22T03:56:47.282Z,93.65
2023-02-22T03:59:14.631Z,93.96
2023-02-22T04:01:41.030Z,93.41
2023-02-22T04:04:07.746Z,94.59
2023-02-22T04:06:34.307Z,94.92
2023-02-22T04:09:03.695Z,94.43
2023-02-22T04:11:30.063Z,94.19
2023-02-22T04:13:57.221Z,94.11
2023-02-22T04:16:23.662Z,94.65
2023-02-22T04:18:50.141Z,94.57
2023-02-22T04:21:16.837Z,95.24
2023-02-22T04:23:43.340Z,96.39
2023-02-22T04:26:09.828Z,97.41
2023-02-22T04:28:36.208Z,97.82
2023-02-22T04:31:02.664Z,97.65
2023-02-22T04:33:29.086Z,97.47
2023-02-22T04:35:57.672Z,96.51
2023-02-22T04:38:26.022Z,95.39
2023-02-22T04:40:53.601Z,94.46
2023-02-22T04:43:20.346Z,94.04
2023-02-22T04:45:46.750Z,93.42
2023-02-22T04:48:13.200Z,93.35
2023-02-22T04:50:40.507Z,93.72
2023-02-22T04:53:06.853Z,93.68
2023-02-22T04:55:34.229Z,94.99
2023-02-22T04:58:00.750Z,94.61
2023-02-22T05:00:27.476Z,94.48
2023-02-22T05:02:53.916Z,94.81
2023-02-22T05:05:21.975Z,94.71
2023-02-22T05:07:49.557Z,94.48
2023-02-22T05:10:16.617Z,94.16
2023-02-22T05:12:43.032Z,94.37
2023-02-22T05:15:10.423Z,94.16
2023-02-22T05:17:37.267Z,93.95
2023-02-22T05:20:04.578Z,94.03
2023-02-22T05:22:31.021Z,93.98
2023-02-22T05:24:57.445Z,94.26
2023-02-22T05:27:24.046Z,93.77
2023-02-22T05:29:50.488Z,93.46
2023-02-22T05:32:16.940Z,93.24
2023-02-22T05:34:43.528Z,92.97
2023-02-22T05:37:09.993Z,95.48
2023-02-22T05:39:37.084Z,97.70
2023-02-22T05:42:03.691Z,98.11
2023-02-22T05:44:30.812Z,97.78
2023-02-22T05:46:57.307Z,96.54
2023-02-22T05:49:23.841Z,94.88
2023-02-22T05:51:50.515Z,93.94
2023-02-22T05:54:16.979Z,93.80
2023-02-22T05:56:43.449Z,93.57
2023-02-22T05:59:09.873Z,93.24
2023-02-22T06:01:36.338Z,92.94
2023-02-22T06:04:03.171Z,93.48
2023-02-22T06:06:30.031Z,93.36
2023-02-22T06:08:56.565Z,92.97
2023-02-22T06:11:23.034Z,92.75
2023-02-22T06:13:51.501Z,92.82
2023-02-22T06:16:18.710Z,93.42
2023-02-22T06:18:45.224Z,93.58
2023-02-22T06:21:11.844Z,94.08
2023-02-22T06:23:38.646Z,94.51
2023-02-22T06:26:05.657Z,94.31
2023-02-22T06:28:32.023Z,94.71
2023-02-22T06:30:58.461Z,94.48
2023-02-22T06:33:24.863Z,94.61
2023-02-22T06:35:51.487Z,94.72
2023-02-22T06:38:22.377Z,94.78
2023-02-22T06:40:48.758Z,94.85
2023-02-22T06:43:15.174Z,94.48
2023-02-22T06:45:41.610Z,94.98
2023-02-22T06:48:09.093Z,94.98
2023-02-22T06:50:36.089Z,94.93
2023-02-22T06:53:03.170Z,94.82
2023-02-22T06:55:31.913Z,94.60
2023-02-22T06:57:59.555Z,94.41
2023-02-22T07:00:27.420Z,94.00
2023-02-22T07:02:54.488Z,93.99
2023-02-22T07:05:22.802Z,93.96
2023-02-22T07:07:52.629Z,93.99
2023-02-22T07:10:21.269Z,94.06
2023-02-22T07:12:48.882Z,93.93
2023-02-22T07:15:18.155Z,93.52
2023-02-22T07:17:48.633Z,92.94
2023-02-22T07:20:15.286Z,93.38
2023-02-22T07:22:41.738Z,93.83
2023-02-22T07:25:12.836Z,93.42
2023-02-22T07:27:41.533Z,92.94
2023-02-22T07:30:17.205Z,91.96
2023-02-22T07:32:44.817Z,92.49
2023-02-22T07:35:22.950Z,92.42
2023-02-22T07:37:49.480Z,91.71
2023-02-22T07:40:17.953Z,91.21
2023-02-22T07:43:02.469Z,90.96
2023-02-22T07:45:34.563Z,90.53
2023-02-22T07:48:03.610Z,89.67
2023-02-22T07:50:32.259Z,88.66
2023-02-22T07:53:03.246Z,88.41
2023-02-22T07:55:32.425Z,87.55
2023-02-22T07:58:01.513Z,86.65
2023-02-22T08:00:30.618Z,86.51
2023-02-22T08:02:57.806Z,86.03
2023-02-22T08:05:26.484Z,85.68
2023-02-22T08:07:53.266Z,86.60
2023-02-22T08:10:22.346Z,84.67
2023-02-22T08:12:49.593Z,84.98
2023-02-22T08:15:21.789Z,85.04
2023-02-22T08:17:48.272Z,85.31
2023-02-22T08:20:14.959Z,85.25
2023-02-22T08:22:44.712Z,85.12
2023-02-22T08:25:12.130Z,83.67
2023-02-22T08:27:38.654Z,83.46
2023-02-22T08:30:06.183Z,82.39
2023-02-22T08:32:32.845Z,80.87
2023-02-22T08:34:59.484Z,80.70
2023-02-22T08:37:25.995Z,82.21
2023-02-22T08:39:53.897Z,83.79
2023-02-22T08:42:20.395Z,82.63
2023-02-22T08:44:46.949Z,82.71
2023-02-22T08:47:13.824Z,83.54
2023-02-22T08:49:40.253Z,82.95
2023-02-22T08:52:06.611Z,82.52
2023-02-22T08:54:32.994Z,82.93
2023-02-22T08:56:59.664Z,81.64
2023-02-22T08:59:26.124Z,78.71
2023-02-22T09:01:52.633Z,77.00
2023-02-22T09:04:19.084Z,77.88
2023-02-22T09:06:51.691Z,79.16
2023-02-22T09:09:21.325Z,78.66
2023-02-22T09:11:50.045Z,79.71
2023-02-22T09:14:18.069Z,78.52
2023-02-22T09:16:45.524Z,77.93
2023-02-22T09:19:12.550Z,79.12
2023-02-22T09:21:40.214Z,77.60
2023-02-22T09:24:11.008Z,76.75
2023-02-22T09:26:39.388Z,77.42
2023-02-22T09:29:09.648Z,76.76
2023-02-22T09:31:38.216Z,76.91
2023-02-22T09:34:13.608Z,76.60
2023-02-22T09:36:41.382Z,75.76
2023-02-22T09:39:09.402Z,75.00
2023-02-22T09:41:47.819Z,74.10
2023-02-22T09:44:20.893Z,71.71
2023-02-22T09:46:49.044Z,71.31
2023-02-22T09:49:15.552Z,70.87
2023-02-22T09:52:04.011Z,71.63
2023-02-22T09:54:43.269Z,70.75
2023-02-22T09:57:17.935Z,70.89
2023-02-22T09:59:56.742Z,70.43
2023-02-22T10:02:41.397Z,70.65
2023-02-22T10:05:17.607Z,67.96
2023-02-22T10:07:51.648Z,67.50
2023-02-22T10:10:20.967Z,67.63
2023-02-22T10:12:58.879Z,66.06
2023-02-22T10:15:45.652Z,65.03
2023-02-22T10:18:36.345Z,65.69
2023-02-22T10:21:36.711Z,63.63
2023-02-22T10:24:45.517Z,61.14
2023-02-22T10:27:20.210Z,56.92
2023-02-22T10:29:53.620Z,53.39
2023-02-22T10:32:31.670Z,49.37
2023-02-22T10:35:00.538Z,49.53
2023-02-22T10:37:33.829Z,49.38
2023-02-22T10:40:13.774Z,51.27
2023-02-22T10:42:40.168Z,51.12
2023-02-22T10:45:20.814Z,51.70
2023-02-22T10:47:47.430Z,48.40
2023-02-22T10:50:15.567Z,48.63
2023-02-22T10:52:42.043Z,47.07
2023-02-22T10:55:15.959Z,48.82
2023-02-22T10:57:46.294Z,47.10
2023-02-22T11:00:26.348Z,44.79
2023-02-22T11:02:57.006Z,44.04
2023-02-22T11:05:31.463Z,48.44
2023-02-22T11:08:14.948Z,47.12
2023-02-22T11:10:43.350Z,46.79
2023-02-22T11:13:53.138Z,47.52
2023-02-22T11:16:28.584Z,47.56
2023-02-22T11:19:06.556Z,48.22
2023-02-22T11:21:33.789Z,51.89
2023-02-22T11:24:10.219Z,53.18
2023-02-22T11:26:49.242Z,50.92
2023-02-22T11:29:31.808Z,47.92
2023-02-22T11:32:00.982Z,50.54
2023-02-22T11:34:39.909Z,50.81
2023-02-22T11:37:34.519Z,47.14
2023-02-22T11:40:05.631Z,47.23
2023-02-22T11:42:32.136Z,46.06
2023-02-22T11:45:17.231Z,47.74
2023-02-22T11:47:49.866Z,47.63
2023-02-22T11:50:48.795Z,49.36
2023-02-22T11:53:26.296Z,48.48
2023-02-22T11:56:37.701Z,45.68
2023-02-22T11:59:21.068Z,46.05
2023-02-22T12:02:08.606Z,48.04
2023-02-22T12:04:44.171Z,45.50
2023-02-22T12:07:19.732Z,46.55
2023-02-22T12:10:18.274Z,46.22
2023-02-22T12:13:27.106Z,49.58
2023-02-22T12:16:35.557Z,47.29
2023-02-22T12:19:20.116Z,47.38
2023-02-22T12:21:52.996Z,48.05
2023-02-22T12:24:23.926Z,49.34
2023-02-22T12:26:56.487Z,49.28
2023-02-22T12:29:26.146Z,48.26
2023-02-22T12:32:01.752Z,48.07
2023-02-22T12:34:28.259Z,51.05
2023-02-22T12:37:13.131Z,47.79
2023-02-22T12:39:58.322Z,47.08
2023-02-22T12:42:29.230Z,45.42
2023-02-22T12:45:08.288Z,45.57
2023-02-22T12:47:47.931Z,45.66
2023-02-22T12:50:23.439Z,46.88
2023-02-22T12:52:59.689Z,45.98
2023-02-22T12:55:38.319Z,47.25
2023-02-22T12:58:18.267Z,47.89
2023-02-22T13:01:05.965Z,48.56
2023-02-22T13:03:37.476Z,49.76
2023-02-22T13:06:22.046Z,50.98
2023-02-22T13:09:17.925Z,49.85
2023-02-22T13:12:16.333Z,50.08
2023-02-22T13:15:09.309Z,49.35
2023-02-22T13:17:38.575Z,49.13
2023-02-22T13:20:29.203Z,50.30
2023-02-22T13:23:14.315Z,50.70
2023-02-22T13:26:08.076Z,50.32
2023-02-22T13:28:46.957Z,51.62
2023-02-22T13:31:22.863Z,50.53
2023-02-22T13:34:01.056Z,51.70
2023-02-22T13:36:39.726Z,52.44
2023-02-22T13:39:44.073Z,51.94
2023-02-22T13:42:38.612Z,51.15
2023-02-22T13:45:27.477Z,50.43
2023-02-22T13:48:07.553Z,49.53
2023-02-22T13:50:58.341Z,49.61
2023-02-22T13:53:55.937Z,50.00
2023-02-22T13:56:24.949Z,50.08
2023-02-22T13:59:18.591Z,50.49
2023-02-22T14:01:48.060Z,51.11
2023-02-22T14:04:26.866Z,51.96
2023-02-22T14:07:01.257Z,53.39
2023-02-22T14:09:46.612Z,51.67
2023-02-22T14:12:35.350Z,48.69
2023-02-22T14:15:27.735Z,46.70
2023-02-22T14:18:09.542Z,47.60
2023-02-22T14:20:38.202Z,48.73
2023-02-22T14:23:25.967Z,51.32
2023-02-22T14:25:55.581Z,53.03
2023-02-22T14:28:46.307Z,54.28
2023-02-22T14:31:34.570Z,54.00
2023-02-22T14:34:11.732Z,52.91
2023-02-22T14:36:40.908Z,52.83
2023-02-22T14:39:35.784Z,53.12
2023-02-22T14:42:17.739Z,53.63
2023-02-22T14:45:42.343Z,52.63
2023-02-22T14:48:44.855Z,55.86
2023-02-22T14:51:26.962Z,54.76
2023-02-22T14:54:01.049Z,54.03
2023-02-22T14:56:41.125Z,56.21
2023-02-22T14:59:18.543Z,57.67
2023-02-22T15:02:09.621Z,58.16
2023-02-22T15:04:37.818Z,58.77
2023-02-22T15:07:28.244Z,58.08
2023-02-22T15:10:20.575Z,57.41
2023-02-22T15:13:09.579Z,59.21
2023-02-22T15:15:40.868Z,59.52
2023-02-22T15:18:19.176Z,60.76
2023-02-22T15:20:57.649Z,60.07
2023-02-22T15:23:38.846Z,60.27
2023-02-22T15:26:05.717Z,60.05
2023-02-22T15:28:38.380Z,60.38
2023-02-22T15:31:16.799Z,61.87
2023-02-22T15:33:46.962Z,61.50
2023-02-22T15:36:16.809Z,61.91
2023-02-22T15:38:51.360Z,62.67
2023-02-22T15:41:27.795Z,61.00
2023-02-22T15:44:26.981Z,60.88
2023-02-22T15:46:58.950Z,61.30
2023-02-22T15:49:25.785Z,60.41
2023-02-22T15:52:05.130Z,61.56
2023-02-22T15:54:39.525Z,60.17
2023-02-22T15:57:06.317Z,59.77
2023-02-22T15:59:35.117Z,60.37
2023-02-22T16:02:01.851Z,61.01
2023-02-22T16:04:30.893Z,61.04
2023-02-22T16:07:16.813Z,61.18
2023-02-22T16:09:51.424Z,61.90
2023-02-22T16:12:24.263Z,62.68
2023-02-22T16:14:54.300Z,62.46
2023-02-22T16:17:37.217Z,62.94
2023-02-22T16:20:19.228Z,63.87
2023-02-22T16:22:49.908Z,65.06
2023-02-22T16:25:19.106Z,65.02
2023-02-22T16:27:50.003Z,67.20
2023-02-22T16:30:34.735Z,67.09
2023-02-22T16:33:16.723Z,66.95
2023-02-22T16:35:52.327Z,66.78
2023-02-22T16:38:19.327Z,66.62
2023-02-22T16:40:52.240Z,66.84
2023-02-22T16:43:22.664Z,67.11
2023-02-22T16:45:49.352Z,66.94
2023-02-22T16:48:19.641Z,67.69
2023-02-22T16:50:47.290Z,68.29
2023-02-22T16:53:15.091Z,68.56
2023-02-22T16:55:44.685Z,68.51
2023-02-22T16:58:16.119Z,68.84
2023-02-22T17:00:44.728Z,69.30
2023-02-22T17:03:18.391Z,69.78
2023-02-22T17:05:45.087Z,70.41
2023-02-22T17:08:11.751Z,70.17
2023-02-22T17:10:38.525Z,70.26
2023-02-22T17:13:22.201Z,70.66
2023-02-22T17:15:50.765Z,70.55
2023-02-22T17:18:22.749Z,71.11
2023-02-22T17:20:50.952Z,71.40
2023-02-22T17:23:17.906Z,71.90
2023-02-22T17:25:56.672Z,72.07
2023-02-22T17:28:24.992Z,71.74
2023-02-22T17:30:53.578Z,72.33
2023-02-22T17:33:27.105Z,73.03
2023-02-22T17:35:55.828Z,72.21
2023-02-22T17:38:23.005Z,72.85
2023-02-22T17:40:54.759Z,73.90
2023-02-22T17:43:22.208Z,74.33
2023-02-22T17:45:49.481Z,75.19
2023-02-22T17:48:19.403Z,74.17
2023-02-22T17:50:49.331Z,74.41
2023-02-22T17:53:18.274Z,74.37
2023-02-22T17:55:44.861Z,74.32
2023-02-22T17:58:14.874Z,74.52
2023-02-22T18:00:44.627Z,75.66
2023-02-22T18:03:16.042Z,75.51
2023-02-22T18:05:46.249Z,75.62
2023-02-22T18:08:14.179Z,75.68
2023-02-22T18:10:44.704Z,75.10
2023-02-22T18:13:17.780Z,76.28
2023-02-22T18:15:45.781Z,76.35
2023-02-22T18:18:13.147Z,76.45
2023-02-22T18:20:46.707Z,78.05
2023-02-22T18:23:16.050Z,77.68
2023-02-22T18:26:07.579Z,76.23
2023-02-22T18:28:37.355Z,77.33
2023-02-22T18:31:14.546Z,76.54
2023-02-22T18:33:45.717Z,76.58
2023-02-22T18:36:14.179Z,78.06
2023-02-22T18:38:44.719Z,78.25
2023-02-22T18:41:14.335Z,79.11
2023-02-22T18:43:41.496Z,77.74
2023-02-22T18:46:13.631Z,77.40
2023-02-22T18:48:40.617Z,77.58
2023-02-22T18:51:10.502Z,79.02
2023-02-22T18:53:40.133Z,78.82
2023-02-22T18:56:15.283Z,79.07
2023-02-22T18:58:43.350Z,79.49
2023-02-22T19:01:16.764Z,79.18
2023-02-22T19:03:43.549Z,79.53
2023-02-22T19:06:10.484Z,78.59
2023-02-22T19:08:41.147Z,79.32
2023-02-22T19:11:10.655Z,81.14
2023-02-22T19:13:38.045Z,82.07
2023-02-22T19:16:07.207Z,80.93
2023-02-22T19:18:34.430Z,81.01
2023-02-22T19:21:03.613Z,81.74
2023-02-22T19:23:34.445Z,81.67
2023-02-22T19:26:02.926Z,82.24
2023-02-22T19:28:34.062Z,81.31
2023-02-22T19:31:33.477Z,81.34
2023-02-22T19:34:11.131Z,80.43
2023-02-22T19:36:39.394Z,80.17
2023-02-22T19:39:05.894Z,79.84
2023-02-22T19:41:32.642Z,80.81
2023-02-22T19:43:59.445Z,81.86
2023-02-22T19:46:25.881Z,83.10
2023-02-22T19:48:55.260Z,82.78
2023-02-22T19:51:25.445Z,82.42
2023-02-22T19:53:53.032Z,82.11
2023-02-22T19:56:26.830Z,82.59
2023-02-22T19:58:55.387Z,81.82
2023-02-22T20:01:32.897Z,81.16
2023-02-22T20:04:03.609Z,81.58
2023-02-22T20:06:42.244Z,81.86
2023-02-22T20:09:12.571Z,82.27
2023-02-22T20:11:39.033Z,82.85
2023-02-22T20:14:06.476Z,83.10
2023-02-22T20:16:34.688Z,82.77
2023-02-22T20:19:01.419Z,83.02
2023-02-22T20:21:34.504Z,83.13
2023-02-22T20:24:03.758Z,82.84
2023-02-22T20:26:32.454Z,82.80
2023-02-22T20:28:59.813Z,83.00
2023-02-22T20:31:29.217Z,83.61
2023-02-22T20:33:58.255Z,83.65
2023-02-22T20:36:25.907Z,83.77
2023-02-22T20:39:02.786Z,84.36
2023-02-22T20:41:32.338Z,83.97
2023-02-22T20:44:01.525Z,84.97
2023-02-22T20:46:31.651Z,84.32
2023-02-22T20:49:04.495Z,85.13
2023-02-22T20:51:31.048Z,84.52
2023-02-22T20:54:00.010Z,83.18
2023-02-22T20:56:29.466Z,82.71
2023-02-22T20:58:57.687Z,83.02
2023-02-22T21:01:24.604Z,83.43
2023-02-22T21:03:51.608Z,84.24
2023-02-22T21:06:21.311Z,84.62
2023-02-22T21:08:54.013Z,84.18
2023-02-22T21:11:21.945Z,83.93
2023-02-22T21:13:48.593Z,84.25
2023-02-22T21:16:18.790Z,83.41
2023-02-22T21:18:45.423Z,83.41
2023-02-22T21:21:12.642Z,83.20
2023-02-22T21:23:42.664Z,84.15
2023-02-22T21:26:18.755Z,84.51
2023-02-22T21:28:51.366Z,84.20
2023-02-22T21:31:20.637Z,84.48
2023-02-22T21:33:50.599Z,85.21
2023-02-22T21:36:18.775Z,85.09
2023-02-22T21:38:49.704Z,85.08
2023-02-22T21:41:17.389Z,85.60
2023-02-22T21:43:48.828Z,85.06
2023-02-22T21:46:15.970Z,84.89
2023-02-22T21:48:45.349Z,84.84
2023-02-22T21:51:14.173Z,84.19
2023-02-22T21:53:49.863Z,84.18
2023-02-22T21:56:22.643Z,84.08
2023-02-22T21:58:59.279Z,84.81
2023-02-22T22:01:33.932Z,84.28
2023-02-22T22:04:02.737Z,84.52
2023-02-22T22:06:31.345Z,84.62
2023-02-22T22:09:00.127Z,84.56
2023-02-22T22:11:27.537Z,84.67
2023-02-22T22:13:57.634Z,84.37
2023-02-22T22:16:27.142Z,84.43
2023-02-22T22:18:57.586Z,84.00
2023-02-22T22:21:24.963Z,84.08
2023-02-22T22:23:54.512Z,84.12
2023-02-22T22:26:24.836Z,84.59
2023-02-22T22:28:54.567Z,85.05
2023-02-22T22:31:23.711Z,85.03
2023-02-22T22:33:50.707Z,85.58
2023-02-22T22:36:19.579Z,85.39
2023-02-22T22:38:48.931Z,85.72
2023-02-22T22:41:19.279Z,85.55
2023-02-22T22:43:46.552Z,84.78
2023-02-22T22:46:16.461Z,85.50
2023-02-22T22:48:46.692Z,85.42
2023-02-22T22:51:18.104Z,85.90
2023-02-22T22:53:46.939Z,85.54
2023-02-22T22:56:26.020Z,85.12
2023-02-22T22:58:55.376Z,85.53
2023-02-22T23:01:28.052Z,85.25
2023-02-22T23:03:59.291Z,84.95
2023-02-22T23:06:42.187Z,85.01
2023-02-22T23:09:18.509Z,84.99
2023-02-22T23:11:56.283Z,85.35
2023-02-22T23:14:31.113Z,85.37
2023-02-22T23:17:03.150Z,84.66
2023-02-22T23:19:35.654Z,84.54
2023-02-22T23:22:05.637Z,84.59
2023-02-22T23:24:36.101Z,84.36
2023-02-22T23:27:07.176Z,84.11
2023-02-22T23:29:37.817Z,83.93
2023-02-22T23:32:06.297Z,83.93
2023-02-22T23:34:38.581Z,84.18
2023-02-22T23:37:09.713Z,84.19
2023-02-22T23:39:36.221Z,84.52
2023-02-22T23:42:03.839Z,84.75
2023-02-22T23:44:30.468Z,84.89
2023-02-22T23:46:56.943Z,85.32
2023-02-22T23:49:37.860Z,85.51
2023-02-22T23:52:08.349Z,84.49
2023-02-22T23:54:36.692Z,85.24
2023-02-22T23:57:05.374Z,84.89
2023-02-22T23:59:33.430Z,85.20
